createdAt,value
2023-01-09T00:02:44.545Z,2.15
2023-01-09T00:05:30.144Z,1.70
2023-01-09T00:08:15.613Z,2.08
2023-01-09T00:11:01.337Z,2.25
2023-01-09T00:13:47.362Z,1.90
2023-01-09T00:16:32.868Z,2.05
2023-01-09T00:19:18.257Z,1.60
2023-01-09T00:22:03.466Z,1.38
2023-01-09T00:24:48.962Z,2.20
2023-01-09T00:27:35.020Z,2.17
2023-01-09T00:30:20.529Z,1.77
2023-01-09T00:33:06.264Z,1.60
2023-01-09T00:35:51.522Z,1.85
2023-01-09T00:38:37.577Z,1.75
2023-01-09T00:41:39.767Z,1.52
2023-01-09T00:44:34.405Z,1.52
2023-01-09T00:47:31.701Z,1.00
2023-01-09T00:50:22.399Z,1.85
2023-01-09T00:53:15.702Z,1.77
2023-01-09T00:56:06.777Z,1.27
2023-01-09T00:58:53.184Z,1.17
2023-01-09T01:01:38.871Z,2.20
2023-01-09T01:04:56.960Z,1.33
2023-01-09T01:07:43.379Z,1.20
2023-01-09T01:10:28.734Z,1.60
2023-01-09T01:13:15.057Z,1.35
2023-01-09T01:16:00.603Z,0.98
2023-01-09T01:18:46.355Z,1.30
2023-01-09T01:21:31.921Z,0.93
2023-01-09T01:24:19.847Z,0.85
2023-01-09T01:27:05.441Z,1.48
2023-01-09T01:29:51.376Z,0.85
2023-01-09T01:32:37.210Z,0.98
2023-01-09T01:35:22.753Z,0.80
2023-01-09T01:38:08.302Z,1.10
2023-01-09T01:40:54.747Z,0.75
2023-01-09T01:43:56.656Z,0.73
2023-01-09T01:46:42.311Z,0.90
2023-01-09T01:49:27.792Z,0.63
2023-01-09T01:52:13.652Z,0.75
2023-01-09T01:54:59.782Z,0.75
2023-01-09T01:57:49.424Z,1.25
2023-01-09T02:00:40.129Z,0.98
2023-01-09T02:03:27.701Z,0.77
2023-01-09T02:06:14.910Z,0.95
2023-01-09T02:09:01.914Z,1.05
2023-01-09T02:11:49.608Z,0.80
2023-01-09T02:14:35.015Z,0.90
2023-01-09T02:17:49.605Z,0.93
2023-01-09T02:20:47.899Z,0.68
2023-01-09T02:23:42.608Z,0.75
2023-01-09T02:26:46.455Z,0.82
2023-01-09T02:29:47.016Z,0.57
2023-01-09T02:32:47.301Z,0.90
2023-01-09T02:35:51.409Z,0.65
2023-01-09T02:38:54.464Z,0.80
2023-01-09T02:41:58.614Z,0.80
2023-01-09T02:44:44.572Z,1.55
2023-01-09T02:47:30.068Z,0.50
2023-01-09T02:50:23.627Z,0.70
2023-01-09T02:53:18.103Z,1.05
2023-01-09T02:56:26.704Z,0.40
2023-01-09T02:59:41.489Z,1.02
2023-01-09T03:03:04.175Z,0.50
2023-01-09T03:09:01.772Z,0.52
2023-01-09T03:11:53.790Z,0.73
2023-01-09T03:14:43.294Z,0.68
2023-01-09T03:17:37.145Z,0.30
2023-01-09T03:20:27.644Z,0.50
2023-01-09T03:23:13.239Z,0.25
2023-01-09T03:25:58.812Z,0.43
2023-01-09T03:28:44.978Z,0.47
2023-01-09T03:31:30.917Z,0.40
2023-01-09T03:34:16.345Z,0.40
2023-01-09T03:37:01.972Z,0.32
2023-01-09T03:39:47.530Z,0.47
2023-01-09T03:42:32.917Z,0.30
2023-01-09T03:45:18.458Z,0.10
2023-01-09T03:48:04.402Z,0.20
2023-01-09T03:50:54.641Z,0.55
2023-01-09T03:53:40.380Z,0.30
2023-01-09T03:56:25.790Z,0.35
2023-01-09T03:59:11.068Z,0.50
2023-01-09T04:01:57.196Z,0.55
2023-01-09T04:04:42.875Z,0.63
2023-01-09T04:07:28.528Z,0.28
2023-01-09T04:10:13.903Z,0.30
2023-01-09T04:12:59.258Z,0.20
2023-01-09T04:15:44.488Z,0.30
2023-01-09T04:18:29.877Z,0.28
2023-01-09T04:21:15.860Z,0.38
2023-01-09T04:24:01.177Z,0.17
2023-01-09T04:26:46.454Z,0.32
2023-01-09T04:29:31.833Z,0.30
2023-01-09T04:32:17.155Z,0.25
2023-01-09T04:35:02.701Z,0.40
2023-01-09T04:37:48.233Z,0.30
2023-01-09T04:40:33.703Z,0.38
2023-01-09T04:43:19.128Z,0.30
2023-01-09T04:46:04.479Z,0.30
2023-01-09T04:48:49.787Z,0.50
2023-01-09T04:51:35.137Z,0.47
2023-01-09T04:54:20.981Z,0.50
2023-01-09T04:57:06.768Z,0.65
2023-01-09T04:59:52.329Z,1.05
2023-01-09T05:02:39.635Z,0.57
2023-01-09T05:05:25.005Z,0.40
2023-01-09T05:08:10.528Z,0.45
2023-01-09T05:10:56.003Z,0.70
2023-01-09T05:13:41.297Z,0.80
2023-01-09T05:16:26.796Z,0.52
2023-01-09T05:19:12.149Z,0.65
2023-01-09T05:21:57.457Z,0.50
2023-01-09T05:24:43.172Z,0.82
2023-01-09T05:27:30.475Z,0.47
2023-01-09T05:30:18.238Z,0.50
2023-01-09T05:33:04.100Z,0.70
2023-01-09T05:35:49.816Z,0.60
2023-01-09T05:38:35.513Z,0.73
2023-01-09T05:41:22.514Z,0.47
2023-01-09T05:44:09.105Z,0.60
2023-01-09T05:46:54.531Z,0.82
2023-01-09T05:49:39.839Z,0.52
2023-01-09T05:52:25.219Z,0.75
2023-01-09T05:55:12.424Z,0.85
2023-01-09T05:57:57.721Z,1.40
2023-01-09T06:00:43.168Z,0.38
2023-01-09T06:03:28.508Z,1.00
2023-01-09T06:06:13.835Z,1.05
2023-01-09T06:08:59.173Z,0.82
2023-01-09T06:11:44.507Z,0.85
2023-01-09T06:14:29.915Z,1.40
2023-01-09T06:17:15.164Z,1.13
2023-01-09T06:20:00.655Z,1.10
2023-01-09T06:22:46.101Z,0.88
2023-01-09T06:25:31.544Z,0.80
2023-01-09T06:28:17.058Z,0.63
2023-01-09T06:31:02.479Z,0.88
2023-01-09T06:33:48.464Z,0.88
2023-01-09T06:36:33.829Z,1.38
2023-01-09T06:39:19.283Z,2.03
2023-01-09T06:42:05.124Z,1.38
2023-01-09T06:44:50.731Z,0.63
2023-01-09T06:47:36.603Z,1.35
2023-01-09T06:50:22.101Z,1.52
2023-01-09T06:53:07.631Z,1.13
2023-01-09T06:55:53.575Z,1.52
2023-01-09T06:58:38.880Z,1.40
2023-01-09T07:01:24.437Z,0.90
2023-01-09T07:04:12.866Z,1.42
2023-01-09T07:06:58.388Z,1.13
2023-01-09T07:09:43.840Z,1.15
2023-01-09T07:12:29.206Z,1.25
2023-01-09T07:15:14.941Z,2.03
2023-01-09T07:18:00.633Z,1.38
2023-01-09T07:20:45.892Z,1.35
2023-01-09T07:23:31.526Z,1.20
2023-01-09T07:26:16.722Z,1.10
2023-01-09T07:29:02.232Z,1.30
2023-01-09T07:31:47.827Z,2.17
2023-01-09T07:34:33.452Z,1.30
2023-01-09T07:37:19.401Z,1.52
2023-01-09T07:40:05.332Z,1.60
2023-01-09T07:42:53.571Z,1.30
2023-01-09T07:45:39.341Z,1.48
2023-01-09T07:48:24.504Z,0.80
2023-01-09T07:51:10.564Z,1.50
2023-01-09T07:53:56.158Z,1.45
2023-01-09T07:56:41.475Z,2.15
2023-01-09T07:59:29.625Z,1.90
2023-01-09T08:02:15.229Z,1.50
2023-01-09T08:05:00.606Z,1.58
2023-01-09T08:07:46.267Z,1.42
2023-01-09T08:10:31.657Z,1.05
2023-01-09T08:13:17.250Z,1.42
2023-01-09T08:16:02.494Z,2.13
2023-01-09T08:18:48.010Z,1.15
2023-01-09T08:21:33.382Z,1.08
2023-01-09T08:24:18.713Z,1.48
2023-01-09T08:27:04.155Z,1.45
2023-01-09T08:29:49.573Z,1.73
2023-01-09T08:32:35.156Z,1.90
2023-01-09T08:35:21.619Z,2.13
2023-01-09T08:38:07.229Z,1.40
2023-01-09T08:40:52.621Z,1.95
2023-01-09T08:43:56.456Z,1.00
2023-01-09T08:47:01.151Z,1.30
2023-01-09T08:49:46.950Z,1.20
2023-01-09T08:52:32.953Z,1.45
2023-01-09T08:55:18.541Z,2.15
2023-01-09T08:58:04.031Z,1.42
2023-01-09T09:00:49.321Z,1.85
2023-01-09T09:03:34.859Z,2.20
2023-01-09T09:06:20.579Z,1.33
2023-01-09T09:09:07.055Z,1.27
2023-01-09T09:11:52.809Z,1.58
2023-01-09T09:14:56.803Z,0.95
2023-01-09T09:17:44.530Z,2.00
2023-01-09T09:20:33.204Z,1.20
2023-01-09T09:23:18.906Z,1.88
2023-01-09T09:26:05.100Z,1.70
2023-01-09T09:28:50.293Z,1.95
2023-01-09T09:31:38.655Z,2.28
2023-01-09T09:34:24.079Z,1.95
2023-01-09T09:37:09.834Z,1.90
2023-01-09T09:39:55.934Z,1.45
2023-01-09T09:43:04.016Z,1.70
2023-01-09T09:46:27.237Z,1.77
2023-01-09T09:49:21.944Z,1.80
2023-01-09T09:52:29.372Z,1.70
2023-01-09T09:55:27.176Z,1.55
2023-01-09T09:58:22.330Z,1.88
2023-01-09T10:01:10.215Z,1.63
2023-01-09T10:04:01.754Z,1.70
2023-01-09T10:06:57.687Z,1.73
2023-01-09T10:09:49.927Z,1.50
2023-01-09T10:12:47.744Z,1.92
2023-01-09T10:15:47.474Z,1.50
2023-01-09T10:18:51.016Z,1.73
2023-01-09T10:22:20.389Z,1.48
2023-01-09T10:25:26.907Z,1.60
2023-01-09T10:28:40.369Z,1.50
2023-01-09T10:31:52.940Z,1.58
2023-01-09T10:35:12.149Z,1.27
2023-01-09T10:38:01.547Z,1.13
2023-01-09T10:41:01.920Z,1.25
2023-01-09T10:44:07.451Z,1.10
2023-01-09T10:46:58.296Z,1.42
2023-01-09T10:49:45.366Z,2.28
2023-01-09T10:52:41.634Z,2.13
2023-01-09T10:55:41.470Z,1.75
2023-01-09T10:58:27.468Z,1.50
2023-01-09T11:01:13.083Z,1.73
2023-01-09T11:04:01.301Z,1.05
2023-01-09T11:06:52.975Z,1.27
2023-01-09T11:10:01.374Z,1.07
2023-01-09T11:12:47.775Z,1.33
2023-01-09T11:15:33.505Z,0.85
2023-01-09T11:18:24.713Z,0.95
2023-01-09T11:21:38.301Z,1.20
2023-01-09T11:24:29.686Z,1.42
2023-01-09T11:27:24.198Z,1.58
2023-01-09T11:30:13.090Z,1.05
2023-01-09T11:32:59.340Z,0.93
2023-01-09T11:36:13.862Z,1.13
2023-01-09T11:39:01.154Z,2.13
2023-01-09T11:41:52.752Z,1.95
2023-01-09T11:44:38.079Z,2.90
2023-01-09T11:47:40.883Z,1.90
2023-01-09T11:50:29.066Z,2.13
2023-01-09T11:53:20.567Z,1.55
2023-01-09T11:56:06.017Z,3.70
2023-01-09T11:58:51.672Z,4.13
2023-01-09T12:01:55.423Z,1.75
2023-01-09T12:05:01.737Z,7.47
2023-01-09T12:08:07.000Z,2.05
2023-01-09T12:11:26.638Z,1.15
2023-01-09T12:14:40.261Z,2.15
2023-01-09T12:17:45.519Z,1.52
2023-01-09T12:20:46.374Z,1.90
2023-01-09T12:23:59.752Z,1.33
2023-01-09T12:27:11.292Z,1.73
2023-01-09T12:30:17.900Z,1.58
2023-01-09T12:33:21.782Z,1.67
2023-01-09T12:36:18.463Z,1.65
2023-01-09T12:39:12.732Z,2.53
2023-01-09T12:42:16.823Z,2.40
2023-01-09T12:45:26.484Z,3.03
2023-01-09T12:48:47.984Z,2.10
2023-01-09T12:52:01.451Z,2.83
2023-01-09T12:54:57.439Z,1.88
2023-01-09T12:57:46.155Z,1.60
2023-01-09T13:00:41.416Z,3.05
2023-01-09T13:03:41.786Z,2.58
2023-01-09T13:06:29.432Z,2.92
2023-01-09T13:09:25.372Z,1.73
2023-01-09T13:12:21.810Z,3.47
2023-01-09T13:15:39.135Z,3.05
2023-01-09T13:18:29.776Z,2.25
2023-01-09T13:21:16.444Z,2.50
2023-01-09T13:24:13.030Z,2.53
2023-01-09T13:27:05.233Z,1.98
2023-01-09T13:29:58.555Z,2.45
2023-01-09T13:32:58.015Z,2.58
2023-01-09T13:35:55.852Z,3.92
2023-01-09T13:38:41.592Z,2.33
2023-01-09T13:41:46.564Z,2.53
2023-01-09T13:44:33.718Z,1.77
2023-01-09T13:47:22.055Z,2.55
2023-01-09T13:50:09.223Z,3.72
2023-01-09T13:52:54.531Z,3.75
2023-01-09T13:55:59.993Z,3.67
2023-01-09T13:58:54.795Z,3.40
2023-01-09T14:01:41.757Z,3.75
2023-01-09T14:04:37.824Z,3.53
2023-01-09T14:07:25.726Z,3.00
2023-01-09T14:10:27.673Z,2.78
2023-01-09T14:13:30.577Z,4.28
2023-01-09T14:16:23.000Z,3.72
2023-01-09T14:19:17.588Z,3.53
2023-01-09T14:22:05.240Z,3.60
2023-01-09T14:24:52.996Z,3.70
2023-01-09T14:27:56.978Z,3.72
2023-01-09T14:30:54.719Z,3.72
2023-01-09T14:33:40.272Z,3.88
2023-01-09T14:36:30.354Z,3.53
2023-01-09T14:39:18.404Z,2.88
2023-01-09T14:42:09.367Z,3.10
2023-01-09T14:45:14.288Z,4.20
2023-01-09T14:48:06.281Z,2.80
2023-01-09T14:50:56.015Z,3.13
2023-01-09T14:53:42.906Z,3.70
2023-01-09T14:56:31.258Z,4.85
2023-01-09T14:59:17.414Z,3.13
2023-01-09T15:02:03.033Z,3.05
2023-01-09T15:04:49.164Z,4.28
2023-01-09T15:07:43.919Z,3.75
2023-01-09T15:10:33.029Z,3.35
2023-01-09T15:13:30.948Z,3.17
2023-01-09T15:16:19.879Z,3.13
2023-01-09T15:19:08.708Z,3.20
2023-01-09T15:22:06.706Z,2.60
2023-01-09T15:24:52.243Z,2.58
2023-01-09T15:27:47.871Z,3.28
2023-01-09T15:30:36.021Z,3.05
2023-01-09T15:33:21.882Z,2.92
2023-01-09T15:36:21.067Z,3.35
2023-01-09T15:39:07.387Z,3.40
2023-01-09T15:42:13.284Z,2.65
2023-01-09T15:44:58.802Z,3.70
2023-01-09T15:47:44.092Z,3.70
2023-01-09T15:50:29.917Z,2.90
2023-01-09T15:53:18.975Z,2.33
2023-01-09T15:56:17.073Z,2.88
2023-01-09T15:59:02.313Z,2.08
2023-01-09T16:02:07.659Z,4.45
2023-01-09T16:04:55.713Z,3.05
2023-01-09T16:07:47.173Z,2.78
2023-01-09T16:10:36.067Z,2.22
2023-01-09T16:13:24.428Z,2.78
2023-01-09T16:16:10.260Z,2.20
2023-01-09T16:18:57.232Z,3.15
2023-01-09T16:21:42.968Z,2.90
2023-01-09T16:24:40.081Z,3.17
2023-01-09T16:27:35.178Z,3.45
2023-01-09T16:30:27.003Z,4.50
2023-01-09T16:33:22.043Z,5.60
2023-01-09T16:36:10.248Z,4.70
2023-01-09T16:38:56.864Z,5.15
2023-01-09T16:42:02.348Z,4.63
2023-01-09T16:44:47.804Z,5.38
2023-01-09T16:47:33.365Z,5.70
2023-01-09T16:50:18.962Z,3.90
2023-01-09T16:53:18.146Z,3.80
2023-01-09T16:56:04.180Z,4.88
2023-01-09T16:58:50.581Z,4.05
2023-01-09T17:01:36.224Z,5.63
2023-01-09T17:04:24.138Z,7.13
2023-01-09T17:07:16.987Z,4.60
2023-01-09T17:10:02.416Z,6.28
2023-01-09T17:12:48.087Z,4.05
2023-01-09T17:15:33.702Z,4.05
2023-01-09T17:18:24.131Z,5.63
2023-01-09T17:21:19.720Z,4.85
2023-01-09T17:24:24.390Z,4.32
2023-01-09T17:27:28.553Z,3.90
2023-01-09T17:30:18.707Z,4.47
2023-01-09T17:33:05.533Z,4.75
2023-01-09T17:35:50.887Z,4.35
2023-01-09T17:38:36.469Z,5.40
2023-01-09T17:41:23.723Z,5.43
2023-01-09T17:44:11.022Z,4.43
2023-01-09T17:46:56.549Z,4.38
2023-01-09T17:49:42.524Z,5.32
2023-01-09T17:52:28.710Z,8.68
2023-01-09T17:55:14.959Z,4.72
2023-01-09T17:58:00.840Z,6.05
2023-01-09T18:00:48.103Z,5.43
2023-01-09T18:03:34.514Z,5.20
2023-01-09T18:06:21.554Z,5.28
2023-01-09T18:09:07.874Z,6.20
2023-01-09T18:11:53.636Z,4.47
2023-01-09T18:14:39.108Z,6.18
2023-01-09T18:17:24.781Z,4.38
2023-01-09T18:20:10.890Z,5.25
2023-01-09T18:22:56.388Z,5.43
2023-01-09T18:25:42.857Z,3.97
2023-01-09T18:28:28.185Z,6.28
2023-01-09T18:31:15.706Z,4.63
2023-01-09T18:34:06.873Z,4.72
2023-01-09T18:36:52.463Z,7.45
2023-01-09T18:39:37.767Z,4.13
2023-01-09T18:42:23.060Z,5.75
2023-01-09T18:45:08.863Z,5.75
2023-01-09T18:47:54.231Z,6.20
2023-01-09T18:50:39.430Z,4.85
2023-01-09T18:53:24.642Z,6.32
2023-01-09T18:56:10.192Z,7.03
2023-01-09T18:58:57.328Z,7.70
2023-01-09T19:01:43.481Z,7.20
2023-01-09T19:04:28.719Z,6.97
2023-01-09T19:07:14.155Z,4.15
2023-01-09T19:09:59.512Z,5.47
2023-01-09T19:12:44.866Z,5.38
2023-01-09T19:15:30.415Z,6.28
2023-01-09T19:18:16.007Z,5.85
2023-01-09T19:21:01.534Z,6.90
2023-01-09T19:23:47.888Z,5.90
2023-01-09T19:26:33.489Z,5.97
2023-01-09T19:29:19.483Z,4.85
2023-01-09T19:32:08.554Z,4.63
2023-01-09T19:34:53.715Z,4.25
2023-01-09T19:37:39.106Z,3.90
2023-01-09T19:40:25.703Z,4.57
2023-01-09T19:43:11.255Z,4.72
2023-01-09T19:45:57.097Z,3.92
2023-01-09T19:48:42.995Z,4.25
2023-01-09T19:51:28.246Z,4.35
2023-01-09T19:54:13.610Z,4.93
2023-01-09T19:56:58.952Z,4.78
2023-01-09T19:59:44.292Z,4.10
2023-01-09T20:02:29.810Z,6.10
2023-01-09T20:05:15.296Z,4.88
2023-01-09T20:08:03.583Z,6.13
2023-01-09T20:10:48.929Z,5.22
2023-01-09T20:13:35.162Z,5.30
2023-01-09T20:16:22.775Z,5.03
2023-01-09T20:19:10.647Z,4.82
2023-01-09T20:21:56.155Z,6.22
2023-01-09T20:24:41.979Z,5.25
2023-01-09T20:27:27.502Z,8.55
2023-01-09T20:30:13.516Z,6.32
2023-01-09T20:33:00.152Z,6.55
2023-01-09T20:35:46.020Z,6.28
2023-01-09T20:38:32.806Z,4.25
2023-01-09T20:41:24.007Z,4.35
2023-01-09T20:44:14.176Z,5.38
2023-01-09T20:46:59.528Z,4.30
2023-01-09T20:49:44.934Z,3.58
2023-01-09T20:52:30.504Z,4.55
2023-01-09T20:55:16.014Z,5.68
2023-01-09T20:58:01.445Z,4.70
2023-01-09T21:00:46.892Z,4.68
2023-01-09T21:03:32.807Z,5.10
2023-01-09T21:06:20.196Z,3.13
2023-01-09T21:09:05.967Z,4.55
2023-01-09T21:11:51.631Z,4.32
2023-01-09T21:14:38.990Z,4.57
2023-01-09T21:17:24.315Z,4.65
2023-01-09T21:20:13.430Z,2.97
2023-01-09T21:22:59.040Z,4.03
2023-01-09T21:25:45.339Z,5.85
2023-01-09T21:28:31.849Z,4.88
2023-01-09T21:31:20.454Z,4.95
2023-01-09T21:34:08.171Z,5.85
2023-01-09T21:36:53.956Z,4.00
2023-01-09T21:39:39.490Z,4.40
2023-01-09T21:42:43.297Z,4.88
2023-01-09T21:45:48.071Z,4.32
2023-01-09T21:48:33.835Z,4.55
2023-01-09T21:51:19.588Z,4.13
2023-01-09T21:54:05.340Z,4.85
2023-01-09T21:56:52.558Z,4.43
2023-01-09T21:59:37.731Z,5.43
2023-01-09T22:02:23.694Z,7.75
2023-01-09T22:05:09.455Z,5.03
2023-01-09T22:07:56.122Z,5.10
2023-01-09T22:10:41.883Z,3.88
2023-01-09T22:13:28.382Z,4.70
2023-01-09T22:16:14.068Z,3.65
2023-01-09T22:18:59.397Z,4.13
2023-01-09T22:21:44.860Z,5.28
2023-01-09T22:24:30.509Z,3.38
2023-01-09T22:27:16.252Z,3.90
2023-01-09T22:30:01.663Z,3.78
2023-01-09T22:32:46.999Z,4.35
2023-01-09T22:35:32.406Z,4.78
2023-01-09T22:38:17.736Z,3.35
2023-01-09T22:41:04.157Z,4.30
2023-01-09T22:43:49.906Z,3.83
2023-01-09T22:46:35.618Z,4.55
2023-01-09T22:49:21.024Z,3.53
2023-01-09T22:52:06.483Z,5.68
2023-01-09T22:54:51.885Z,5.10
2023-01-09T22:57:37.191Z,4.60
2023-01-09T23:00:22.505Z,2.97
2023-01-09T23:03:07.872Z,3.10
2023-01-09T23:06:05.568Z,3.33
2023-01-09T23:08:52.839Z,3.95
2023-01-09T23:11:57.205Z,2.92
2023-01-09T23:14:42.903Z,3.28
2023-01-09T23:17:28.259Z,2.95
2023-01-09T23:20:13.603Z,3.47
2023-01-09T23:22:59.178Z,4.93
2023-01-09T23:25:52.192Z,3.40
2023-01-09T23:28:37.416Z,2.03
2023-01-09T23:31:22.773Z,3.03
2023-01-09T23:34:08.514Z,4.15
2023-01-09T23:36:57.423Z,2.50
2023-01-09T23:39:43.078Z,2.45
2023-01-09T23:42:46.974Z,3.33
2023-01-09T23:45:33.891Z,3.20
2023-01-09T23:48:19.866Z,2.58
2023-01-09T23:51:08.276Z,2.50
2023-01-09T23:53:53.844Z,2.65
2023-01-09T23:56:39.255Z,2.15
2023-01-09T23:59:24.646Z,2.60
